Terminal Aerodrome Forecast
Issued by NWS

Home | Current Version | Previous Version | Text Only | Print | Product List | Glossary On
Versions: 1 2 3 4 5 6 7 8 9 10 11 12 13
476
FTUS46 KMTR 050741 AAA
TAFSNS
TAF AMD
KSNS 050741Z 0508/0606 VRB05KT P6SM OVC009
     FM051600 28005KT P6SM SCT010 BKN200
     FM052100 28008KT P6SM BKN200
     FM060300 26004KT P6SM BKN200=

USA.gov is the U.S. government's official web portal to all federal, state and local government web resources and services.